Terminal Aerodrome Forecast
Issued by NWS Bismarck, ND

Home | Current Version | Previous Version | Text Only | Print | Product List | Glossary Off
Versions: 1 2 3 4 5 6 7 8 9 10 11 12 13 14 15 16 17 18

000
FTUS43 KBIS 251700 AAA
TAFBIS
TAF AMD
KBIS 251712Z 2517/2612 15010KT 1SM -SN BR OVC024
     FM251800 18010KT 3/4SM -SN OVC007
      TEMPO 2518/2522 1/2SM SN OVC005
     FM260000 33014KT 3SM -SN OVC009
     FM260300 33020G28KT 4SM -SN BLSN OVC009=

USA.gov is the U.S. government's official web portal to all federal, state and local government web resources and services.